Hercules J — 5BDG4 — position and weather

sailwx.info

Track history (hours):
 
Tides and Currents Weather Stations Pressure Air Temp Water Temp Dewpoint Dewpoint Depression Visibility Wind Speed Wind Dir Waves Ship Positions

Hercules J

Last reported at 2018-Feb-22 06:58 UTC. Time now 2018-Feb-22 07:21 UTC.
Position N 51°53' E 004°26'.

Length 151 m; draft 7.6 m.

Type: Ship (hazmat cat A). MMSI: 212302000.

Date/timePositionNaut miles runAvg speedWind from/ knotsBaromVisibWave heightAir tempDewpointWater temp
2018-Feb-22 06:58N 51°53' E 004°26'0 0.0
2018-Feb-22 06:28N 51°53' E 004°26'0 0.0
2018-Feb-22 05:58N 51°53' E 004°26'0 0.0
2018-Feb-22 05:31N 51°53' E 004°26'0 0.0
2018-Feb-22 04:57N 51°53' E 004°26'0 0.0
2018-Feb-22 04:30N 51°53' E 004°26'0 0.0
2018-Feb-22 04:00N 51°53' E 004°26'0 0.0
2018-Feb-22 03:30N 51°53' E 004°26'0 0.0
2018-Feb-22 02:59N 51°53' E 004°26'0 0.0
2018-Feb-22 02:29N 51°53' E 004°26'0 0.0
2018-Feb-22 01:59N 51°53' E 004°26'0 0.0
2018-Feb-22 01:29N 51°53' E 004°26'0 0.0
2018-Feb-22 00:59N 51°53' E 004°26'0 0.0
2018-Feb-22 00:28N 51°53' E 004°26'0 0.0
2018-Feb-21 23:58N 51°53' E 004°26'0 0.0
2018-Feb-21 23:28N 51°53' E 004°26'0 0.0
2018-Feb-21 22:58N 51°53' E 004°26'0 0.0
2018-Feb-21 22:31N 51°53' E 004°26'0 0.0
2018-Feb-21 22:00N 51°53' E 004°26'0 0.0
2018-Feb-21 21:30N 51°53' E 004°26'0 0.0
2018-Feb-21 21:00N 51°53' E 004°26'0 0.0
2018-Feb-21 20:30N 51°53' E 004°26'1 1.1
2018-Feb-21 20:00N 51°53' E 004°25'3 5.4
2018-Feb-21 19:30N 51°54' E 004°21'510.8
2018-Feb-21 19:00N 51°56' E 004°13'611.1
2018-Feb-21 18:31N 51°59' E 004°05'1 2.8
2018-Feb-21 17:59N 51°58' E 004°02'0 0.0
2018-Feb-21 17:29N 51°58' E 004°02'0 0.0
2018-Feb-21 16:59N 51°58' E 004°02'0 0.0
2018-Feb-21 16:23N 51°58' E 004°02'0 0.0
2018-Feb-21 15:58N 51°58' E 004°02'0 0.0
2018-Feb-21 15:28N 51°58' E 004°02'0 0.0
2018-Feb-21 14:58N 51°58' E 004°02'0 0.0
2018-Feb-21 14:28N 51°58' E 004°02'0 0.0
2018-Feb-21 14:00N 51°58' E 004°02'0 0.0
2018-Feb-21 13:30N 51°58' E 004°02'0 0.0
2018-Feb-21 13:00N 51°58' E 004°02'0 0.0
2018-Feb-21 12:27N 51°58' E 004°02'0 0.0
2018-Feb-21 11:57N 51°58' E 004°02'0 0.0
2018-Feb-21 11:26N 51°58' E 004°02'0 0.0
2018-Feb-21 10:56N 51°58' E 004°02'0 0.0
2018-Feb-21 10:23N 51°58' E 004°02'0 0.0
2018-Feb-21 09:59N 51°58' E 004°02'0 0.0
2018-Feb-21 09:29N 51°58' E 004°02'0 0.0
2018-Feb-21 08:49N 51°58' E 004°02'0 0.0
2018-Feb-21 08:25N 51°58' E 004°02'0 0.0
2018-Feb-21 07:55N 51°58' E 004°02'0 0.0
2018-Feb-21 07:28N 51°58' E 004°02'0 0.0
2018-Feb-21 07:01N 51°58' E 004°02'0 0.0
2018-Feb-21 06:06N 51°58' E 004°02'0 0.0
2018-Feb-21 05:57N 51°58' E 004°02'0 0.0
2018-Feb-21 05:30N 51°58' E 004°02'0 0.0
2018-Feb-21 05:00N 51°58' E 004°02'0 0.0
2018-Feb-21 04:26N 51°58' E 004°02'0 0.0
2018-Feb-21 03:59N 51°58' E 004°02'0 0.0
2018-Feb-21 03:30N 51°58' E 004°02'1 1.3
2018-Feb-21 03:00N 51°58' E 004°03'3 6.1
2018-Feb-21 02:30N 51°58' E 004°08'714.0
2018-Feb-21 02:00N 51°54' E 004°17'4 8.9
2018-Feb-21 01:30N 51°53' E 004°24'0 0.5
2018-Feb-21 00:59N 51°53' E 004°24'0 0.0
2018-Feb-21 00:29N 51°53' E 004°24'0 0.0
2018-Feb-20 23:59N 51°53' E 004°24'0 0.0
2018-Feb-20 23:28N 51°53' E 004°24'0 0.0
2018-Feb-20 22:55N 51°53' E 004°24'0 0.0
2018-Feb-20 22:28N 51°53' E 004°24'0 0.0
2018-Feb-20 21:58N 51°53' E 004°24'0 0.0
2018-Feb-20 21:28N 51°53' E 004°24'0 0.0
2018-Feb-20 21:00N 51°53' E 004°24'0 0.0
2018-Feb-20 20:27N 51°53' E 004°24'0 0.9
2018-Feb-20 20:00N 51°53' E 004°24'3 6.7
2018-Feb-20 19:30N 51°54' E 004°19'4 7.6
2018-Feb-20 19:00N 51°55' E 004°14'612.6
2018-Feb-20 18:30N 51°59' E 004°05'3 5.2
2018-Feb-20 18:00N 51°59' E 004°01'2 3.3
2018-Feb-20 17:30N 51°57' E 003°60'0 0.0
2018-Feb-20 17:00N 51°57' E 003°60'0 0.0
2018-Feb-20 16:30N 51°57' E 003°60'0 0.0
2018-Feb-20 16:00N 51°57' E 003°60'0 0.0
2018-Feb-20 15:30N 51°57' E 003°60'0 0.0
2018-Feb-20 14:59N 51°57' E 003°60'0 0.0
2018-Feb-20 14:26N 51°57' E 003°60'0 0.0
2018-Feb-20 13:59N 51°57' E 003°60'0 0.0
2018-Feb-20 13:26N 51°57' E 003°60'0 0.0
2018-Feb-20 12:58N 51°57' E 003°60'0 0.0
2018-Feb-20 12:28N 51°57' E 003°60'0 0.0
2018-Feb-20 11:58N 51°57' E 003°60'0 0.0
2018-Feb-20 11:28N 51°57' E 003°60'0 0.0
2018-Feb-20 10:55N 51°57' E 003°60'0 0.0
2018-Feb-20 10:30N 51°57' E 003°60'0 0.0
2018-Feb-20 09:42N 51°57' E 003°60'0 0.0
2018-Feb-20 09:27N 51°57' E 003°60'0 0.0
2018-Feb-20 08:57N 51°57' E 003°60'0 0.0
2018-Feb-20 08:27N 51°57' E 003°60'0 0.0
2018-Feb-20 07:59N 51°57' E 003°60'0 0.0
2018-Feb-20 07:26N 51°57' E 003°60'0 0.0
2018-Feb-20 06:56N 51°57' E 003°60'0 0.0
2018-Feb-20 06:26N 51°57' E 003°60'0 0.0
2018-Feb-20 05:55N 51°57' E 003°60'0 0.0
2018-Feb-20 05:28N 51°57' E 003°60'0 0.0
2018-Feb-20 04:58N 51°57' E 003°60'0 0.0
2018-Feb-20 04:28N 51°57' E 003°60'0 0.0
2018-Feb-20 03:55N 51°57' E 003°60'0 0.0
2018-Feb-20 03:30N 51°57' E 003°60'0 0.0
2018-Feb-20 03:00N 51°57' E 003°60'0 0.0
2018-Feb-20 02:30N 51°57' E 003°60'0 0.0
2018-Feb-20 01:54N 51°57' E 003°60'0 0.0
2018-Feb-20 01:30N 51°57' E 003°60'0 0.0
2018-Feb-20 00:59N 51°57' E 003°60'0 0.0
2018-Feb-20 00:23N 51°57' E 003°60'0 0.0
2018-Feb-19 23:59N 51°57' E 003°60'0 0.0
2018-Feb-19 23:29N 51°57' E 003°60'0 0.0
2018-Feb-19 22:58N 51°57' E 003°60'0 0.0
2018-Feb-19 22:28N 51°57' E 003°60'0 0.0
2018-Feb-19 21:58N 51°57' E 003°60'0 0.0
2018-Feb-19 21:30N 51°57' E 003°60'2 4.0
2018-Feb-19 21:00N 51°58' E 004°02'2 3.4
2018-Feb-19 20:30N 51°57' E 004°03'0 0.0
2018-Feb-19 20:00N 51°57' E 004°03'0 0.0
2018-Feb-19 19:29N 51°57' E 004°03'0 0.0
2018-Feb-19 18:59N 51°57' E 004°03'0 0.0
2018-Feb-19 18:29N 51°57' E 004°03'0 0.0
2018-Feb-19 17:59N 51°57' E 004°03'0 0.0
2018-Feb-19 17:29N 51°57' E 004°03'0 0.0
2018-Feb-19 16:58N 51°57' E 004°03'0 0.0
2018-Feb-19 16:28N 51°57' E 004°03'0 0.0
2018-Feb-19 15:58N 51°57' E 004°03'0 0.0
2018-Feb-19 15:25N 51°57' E 004°03'0 0.0
2018-Feb-19 14:57N 51°57' E 004°03'0 0.0
2018-Feb-19 14:30N 51°57' E 004°03'0 0.0
2018-Feb-19 14:00N 51°57' E 004°03'0 0.0
2018-Feb-19 13:27N 51°57' E 004°03'0 0.0
2018-Feb-19 12:44N 51°57' E 004°03'0 0.0
2018-Feb-19 12:25N 51°57' E 004°03'0 0.0
2018-Feb-19 11:59N 51°57' E 004°03'0 0.0
2018-Feb-19 11:25N 51°57' E 004°03'0 0.0
2018-Feb-19 10:59N 51°57' E 004°03'0 0.0
2018-Feb-19 10:29N 51°57' E 004°03'0 0.0
2018-Feb-19 09:58N 51°57' E 004°03'0 0.0
2018-Feb-19 09:25N 51°57' E 004°03'0 0.0
2018-Feb-19 08:58N 51°57' E 004°03'0 0.0
2018-Feb-19 08:22N 51°57' E 004°03'0 0.0
2018-Feb-19 07:57N 51°57' E 004°03'0 0.0
2018-Feb-19 07:27N 51°57' E 004°03'0 0.0
2018-Feb-19 07:00N 51°57' E 004°03'0 0.0
2018-Feb-19 06:27N 51°57' E 004°03'0 0.0
2018-Feb-19 05:58N 51°57' E 004°03'0 0.0
2018-Feb-19 05:29N 51°57' E 004°03'0 0.0
2018-Feb-19 04:53N 51°57' E 004°03'0 0.0
2018-Feb-19 04:26N 51°57' E 004°03'0 0.0
2018-Feb-19 03:56N 51°57' E 004°03'0 0.0
2018-Feb-19 03:29N 51°57' E 004°03'0 0.0
2018-Feb-19 02:52N 51°57' E 004°03'0 0.0
2018-Feb-19 02:19N 51°57' E 004°03'0 0.0
2018-Feb-19 01:58N 51°57' E 004°03'0 0.0
2018-Feb-19 01:30N 51°57' E 004°03'2 3.6
2018-Feb-19 01:01N 51°58' E 004°05'714.0
2018-Feb-19 00:30N 51°59' E 003°54'713.2
2018-Feb-19 00:00N 51°58' E 003°43'914.7
2018-Feb-18 23:22N 51°56' E 003°28'714.8
2018-Feb-18 22:54N 51°54' E 003°18'614.7
2018-Feb-18 22:29N 51°52' E 003°09'1814.6
2018-Feb-18 21:16N 51°45' E 002°42'513.8
2018-Feb-18 20:54N 51°43' E 002°34'614.0
2018-Feb-18 20:29N 51°38' E 002°28'714.5
2018-Feb-18 20:00N 51°33' E 002°21'714.5
2018-Feb-18 19:30N 51°28' E 002°14'714.3
2018-Feb-18 19:00N 51°21' E 002°10'713.4
2018-Feb-18 18:30N 51°15' E 002°04'815.1
2018-Feb-18 18:00N 51°11' E 001°54'815.2
2018-Feb-18 17:30N 51°07' E 001°44'815.9
2018-Feb-18 17:00N 51°01' E 001°36'6614.8
2018-Feb-18 12:32N 50°22' E 000°11'116.1
2018-Feb-18 12:30N 50°22' E 000°10'816.4
2018-Feb-18 12:00N 50°19' W 000°02'3917.8
2018-Feb-18 09:48N 50°07' W 001°00'618.7
2018-Feb-18 09:29N 50°06' W 001°09'918.9
2018-Feb-18 09:00N 50°04' W 001°23'918.7
2018-Feb-18 08:31N 50°02' W 001°37'918.3
2018-Feb-18 08:00N 49°60' W 001°51'17514.3
2018-Feb-17 19:50N 48°31' W 005°41'514.7
2018-Feb-17 19:30N 48°27' W 005°38'815.1
2018-Feb-17 18:58N 48°19' W 005°32'715.2
2018-Feb-17 18:30N 48°13' W 005°28'715.3
2018-Feb-17 18:00N 48°06' W 005°25'815.5
2018-Feb-17 17:30N 47°58' W 005°21'815.7
2018-Feb-17 17:00N 47°51' W 005°17'815.7
2018-Feb-17 16:30N 47°43' W 005°13'915.7
2018-Feb-17 15:57N 47°35' W 005°09'815.5
2018-Feb-17 15:28N 47°28' W 005°06'24314.8
2018-Feb-16 23:01N 43°39' W 003°12'115.7
2018-Feb-16 22:58N 43°38' W 003°11'815.2
2018-Feb-16 22:28N 43°31' W 003°08'714.8
2018-Feb-16 22:00N 43°24' W 003°06'4 8.1
2018-Feb-16 21:30N 43°21' W 003°03'0 0.4
2018-Feb-16 21:00N 43°21' W 003°03'0 0.0
2018-Feb-16 20:30N 43°21' W 003°03'0 0.0
2018-Feb-16 19:59N 43°21' W 003°03'0 0.0
2018-Feb-16 19:29N 43°21' W 003°03'0 0.0
2018-Feb-16 18:59N 43°21' W 003°03'0 0.0
2018-Feb-16 18:29N 43°21' W 003°03'0 0.0
2018-Feb-16 17:58N 43°21' W 003°03'0 0.0
2018-Feb-16 17:28N 43°21' W 003°03'0 0.0
2018-Feb-16 16:58N 43°21' W 003°03'0 0.0
2018-Feb-16 16:22N 43°21' W 003°03'0 0.0
2018-Feb-16 15:58N 43°21' W 003°03'0 0.0
2018-Feb-16 15:30N 43°21' W 003°03'0 0.0
2018-Feb-16 14:57N 43°21' W 003°03'0 0.0
2018-Feb-16 14:27N 43°21' W 003°03'0 0.0
2018-Feb-16 14:00N 43°21' W 003°03'0 0.0
2018-Feb-16 13:29N 43°21' W 003°03'0 0.0
2018-Feb-16 12:57N 43°21' W 003°03'0 0.0
2018-Feb-16 12:30N 43°21' W 003°03'0 0.0
2018-Feb-16 11:57N 43°21' W 003°03'0 0.0
2018-Feb-16 11:27N 43°21' W 003°03'0 0.0
2018-Feb-16 10:56N 43°21' W 003°03'0 0.0
2018-Feb-16 10:29N 43°21' W 003°03'0 0.0
2018-Feb-16 09:59N 43°21' W 003°03'0 0.0
2018-Feb-16 09:29N 43°21' W 003°03'0 0.0
2018-Feb-16 08:56N 43°21' W 003°03'0 0.0
2018-Feb-16 08:28N 43°21' W 003°03'0 0.0
2018-Feb-16 07:55N 43°21' W 003°03'0 0.0
2018-Feb-16 07:28N 43°21' W 003°03'0 0.0
2018-Feb-16 06:58N 43°21' W 003°03'0 0.0
2018-Feb-16 06:30N 43°21' W 003°03'0 0.0
2018-Feb-16 06:00N 43°21' W 003°03'0 0.0
2018-Feb-16 05:30N 43°21' W 003°03'0 0.0
2018-Feb-16 04:54N 43°21' W 003°03'0 0.0
2018-Feb-16 04:30N 43°21' W 003°03'0 0.0
2018-Feb-16 03:59N 43°21' W 003°03'0 0.0
2018-Feb-16 03:29N 43°21' W 003°03'0 0.0
2018-Feb-16 02:59N 43°21' W 003°03'0 0.0
2018-Feb-16 02:29N 43°21' W 003°03'0 0.0
2018-Feb-16 01:58N 43°21' W 003°03'0 0.0
2018-Feb-16 01:28N 43°21' W 003°03'0 0.0
2018-Feb-16 00:58N 43°21' W 003°03'0 0.0
2018-Feb-16 00:28N 43°21' W 003°03'0 0.0
2018-Feb-15 23:58N 43°21' W 003°03'0 0.0
2018-Feb-15 23:30N 43°21' W 003°03'0 0.0
2018-Feb-15 23:00N 43°21' W 003°03'0 0.0
2018-Feb-15 22:30N 43°21' W 003°03'0 0.0
2018-Feb-15 22:00N 43°21' W 003°03'0 0.0
2018-Feb-15 21:30N 43°21' W 003°03'0 0.0
2018-Feb-15 20:59N 43°21' W 003°03'0 0.0
2018-Feb-15 20:29N 43°21' W 003°03'0 0.0
2018-Feb-15 19:59N 43°21' W 003°03'0 0.0
2018-Feb-15 19:26N 43°21' W 003°03'0 0.0
2018-Feb-15 18:58N 43°21' W 003°03'0 0.0
2018-Feb-15 18:25N 43°21' W 003°03'0 0.0
2018-Feb-15 17:58N 43°21' W 003°03'0 0.0
2018-Feb-15 17:25N 43°21' W 003°03'0 0.0
2018-Feb-15 16:58N 43°21' W 003°03'0 0.0
2018-Feb-15 16:30N 43°21' W 003°03'0 0.0
2018-Feb-15 16:00N 43°21' W 003°03'0 0.0
2018-Feb-15 15:30N 43°21' W 003°03'0 0.0
2018-Feb-15 14:57N 43°21' W 003°03'0 0.0
2018-Feb-15 14:30N 43°21' W 003°03'0 0.0
2018-Feb-15 13:59N 43°21' W 003°03'0 0.0
2018-Feb-15 13:29N 43°21' W 003°03'0 0.0
2018-Feb-15 12:56N 43°21' W 003°03'0 0.0
2018-Feb-15 12:30N 43°21' W 003°03'0 0.0
2018-Feb-15 12:00N 43°21' W 003°03'0 0.0
2018-Feb-15 11:30N 43°21' W 003°03'0 0.0
2018-Feb-15 11:00N 43°21' W 003°03'0 0.0
2018-Feb-15 10:30N 43°21' W 003°03'0 0.0
2018-Feb-15 10:00N 43°21' W 003°03'0 0.0
2018-Feb-15 09:30N 43°21' W 003°03'0 0.0
2018-Feb-15 09:00N 43°21' W 003°03'0 0.0
2018-Feb-15 08:30N 43°21' W 003°03'0 0.0
2018-Feb-15 08:00N 43°21' W 003°03'0 0.0
2018-Feb-15 07:30N 43°21' W 003°03'0 0.0
2018-Feb-15 07:00N 43°21' W 003°03'0 0.0
2018-Feb-15 06:30N 43°21' W 003°03'0 0.0
2018-Feb-15 06:00N 43°21' W 003°03'0 0.0
2018-Feb-15 05:30N 43°21' W 003°03'0 0.0
2018-Feb-15 05:00N 43°21' W 003°03'0 0.0
2018-Feb-15 04:30N 43°21' W 003°03'0 0.0
2018-Feb-15 04:00N 43°21' W 003°03'0 0.0
2018-Feb-15 03:30N 43°21' W 003°03'0 0.0
2018-Feb-15 03:00N 43°21' W 003°03'0 0.0
2018-Feb-15 02:30N 43°21' W 003°03'0 0.0
2018-Feb-15 02:00N 43°21' W 003°03'0 0.0
2018-Feb-15 01:30N 43°21' W 003°03'0 0.0
2018-Feb-15 01:00N 43°21' W 003°03'0 0.0
2018-Feb-15 00:30N 43°21' W 003°03'0 0.0
2018-Feb-15 00:00N 43°21' W 003°03'0 0.0
2018-Feb-14 23:29N 43°21' W 003°03'0 0.0
2018-Feb-14 23:00N 43°21' W 003°03'0 0.0
2018-Feb-14 22:30N 43°21' W 003°03'1 2.0
2018-Feb-14 22:00N 43°22' W 003°03'4 7.4
2018-Feb-14 21:30N 43°25' W 003°06'611.7
2018-Feb-14 21:00N 43°30' W 003°08'815.3
2018-Feb-14 20:30N 43°38' W 003°09'815.0
2018-Feb-14 19:59N 43°46' W 003°10'27614.0
2018-Feb-14 00:15N 48°02' W 005°39'313.6
2018-Feb-14 00:00N 48°05' W 005°41'13610.5
2018-Feb-13 11:04N 49°47' W 003°25'112.4
2018-Feb-13 11:00N 49°48' W 003°24'612.7
2018-Feb-13 10:30N 49°51' W 003°16'712.5
2018-Feb-13 09:58N 49°54' W 003°07'712.1
2018-Feb-13 09:25N 49°58' W 002°58'410.7
2018-Feb-13 09:00N 49°60' W 002°52'610.1
2018-Feb-13 08:27N 50°02' W 002°44'3710.8
2018-Feb-13 05:03N 50°12' W 001°49'112.9
2018-Feb-13 05:00N 50°12' W 001°48'713.1
2018-Feb-13 04:30N 50°14' W 001°38'4815.1
2018-Feb-13 01:18N 50°27' W 000°25'515.9
2018-Feb-13 01:00N 50°28' W 000°18'815.9
2018-Feb-13 00:30N 50°30' W 000°06'815.7
2018-Feb-13 00:00N 50°32' E 000°06'815.5
2018-Feb-12 23:31N 50°35' E 000°17'815.4
2018-Feb-12 23:00N 50°38' E 000°29'714.9
2018-Feb-12 22:30N 50°40' E 000°40'714.7
2018-Feb-12 22:00N 50°44' E 000°49'714.6
2018-Feb-12 21:30N 50°49' E 000°58'914.4
2018-Feb-12 20:52N 50°55' E 001°09'714.3
2018-Feb-12 20:24N 50°59' E 001°17'615.0
2018-Feb-12 20:00N 51°03' E 001°25'816.1
2018-Feb-12 19:30N 51°08' E 001°34'816.6
2018-Feb-12 19:01N 51°13' E 001°44'816.9
2018-Feb-12 18:31N 51°20' E 001°51'816.8
2018-Feb-12 18:01N 51°27' E 002°00'816.6
2018-Feb-12 17:31N 51°33' E 002°09'816.1
2018-Feb-12 17:00N 51°39' E 002°18'815.5
2018-Feb-12 16:30N 51°45' E 002°26'4313.6
2018-Feb-12 13:22N 52°03' E 003°29'513.9
2018-Feb-12 13:00N 52°03' E 003°37'713.7
2018-Feb-12 12:30N 52°03' E 003°48'4 8.5
2018-Feb-12 12:00N 52°02' E 003°55'713.6
2018-Feb-12 11:30N 51°59' E 004°05'2 2.5
2018-Feb-12 10:48N 51°57' E 004°04'0 0.0
2018-Feb-12 10:30N 51°57' E 004°04'0 0.0
2018-Feb-12 09:56N 51°57' E 004°04'0 0.0
2018-Feb-12 09:29N 51°57' E 004°04'0 0.0
2018-Feb-12 08:53N 51°57' E 004°04'0 0.0
2018-Feb-12 08:29N 51°57' E 004°04'0 0.0
2018-Feb-12 07:59N 51°57' E 004°04'0 0.0
2018-Feb-12 07:22N 51°57' E 004°04'0 0.0
2018-Feb-12 06:58N 51°57' E 004°04'  
Track history (hours):
 
Tides and Currents Weather Stations Pressure Air Temp Water Temp Dewpoint Dewpoint Depression Visibility Wind Speed Wind Dir Waves Ship Positions

Hercules J

Last reported at 2018-Feb-22 06:58 UTC. Time now 2018-Feb-22 07:21 UTC.
Position N 51°53' E 004°26'.

Length 151 m; draft 7.6 m.

Type: Ship (hazmat cat A). MMSI: 212302000.

Date/timePositionNaut miles runAvg speedWind from/ knotsBaromVisibWave heightAir tempDewpointWater temp
2018-Feb-22 06:58N 51°53' E 004°26'0 0.0
2018-Feb-22 06:28N 51°53' E 004°26'0 0.0
2018-Feb-22 05:58N 51°53' E 004°26'0 0.0
2018-Feb-22 05:31N 51°53' E 004°26'0 0.0
2018-Feb-22 04:57N 51°53' E 004°26'0 0.0
2018-Feb-22 04:30N 51°53' E 004°26'0 0.0
2018-Feb-22 04:00N 51°53' E 004°26'0 0.0
2018-Feb-22 03:30N 51°53' E 004°26'0 0.0
2018-Feb-22 02:59N 51°53' E 004°26'0 0.0
2018-Feb-22 02:29N 51°53' E 004°26'0 0.0
2018-Feb-22 01:59N 51°53' E 004°26'0 0.0
2018-Feb-22 01:29N 51°53' E 004°26'0 0.0
2018-Feb-22 00:59N 51°53' E 004°26'0 0.0
2018-Feb-22 00:28N 51°53' E 004°26'0 0.0
2018-Feb-21 23:58N 51°53' E 004°26'0 0.0
2018-Feb-21 23:28N 51°53' E 004°26'0 0.0
2018-Feb-21 22:58N 51°53' E 004°26'0 0.0
2018-Feb-21 22:31N 51°53' E 004°26'0 0.0
2018-Feb-21 22:00N 51°53' E 004°26'0 0.0
2018-Feb-21 21:30N 51°53' E 004°26'0 0.0
2018-Feb-21 21:00N 51°53' E 004°26'0 0.0
2018-Feb-21 20:30N 51°53' E 004°26'1 1.1
2018-Feb-21 20:00N 51°53' E 004°25'3 5.4
2018-Feb-21 19:30N 51°54' E 004°21'510.8
2018-Feb-21 19:00N 51°56' E 004°13'611.1
2018-Feb-21 18:31N 51°59' E 004°05'1 2.8
2018-Feb-21 17:59N 51°58' E 004°02'0 0.0
2018-Feb-21 17:29N 51°58' E 004°02'0 0.0
2018-Feb-21 16:59N 51°58' E 004°02'0 0.0
2018-Feb-21 16:23N 51°58' E 004°02'0 0.0
2018-Feb-21 15:58N 51°58' E 004°02'0 0.0
2018-Feb-21 15:28N 51°58' E 004°02'0 0.0
2018-Feb-21 14:58N 51°58' E 004°02'0 0.0
2018-Feb-21 14:28N 51°58' E 004°02'0 0.0
2018-Feb-21 14:00N 51°58' E 004°02'0 0.0
2018-Feb-21 13:30N 51°58' E 004°02'0 0.0
2018-Feb-21 13:00N 51°58' E 004°02'0 0.0
2018-Feb-21 12:27N 51°58' E 004°02'0 0.0
2018-Feb-21 11:57N 51°58' E 004°02'0 0.0
2018-Feb-21 11:26N 51°58' E 004°02'0 0.0
2018-Feb-21 10:56N 51°58' E 004°02'0 0.0
2018-Feb-21 10:23N 51°58' E 004°02'0 0.0
2018-Feb-21 09:59N 51°58' E 004°02'0 0.0
2018-Feb-21 09:29N 51°58' E 004°02'0 0.0
2018-Feb-21 08:49N 51°58' E 004°02'0 0.0
2018-Feb-21 08:25N 51°58' E 004°02'0 0.0
2018-Feb-21 07:55N 51°58' E 004°02'0 0.0
2018-Feb-21 07:28N 51°58' E 004°02'0 0.0
2018-Feb-21 07:01N 51°58' E 004°02'0 0.0
2018-Feb-21 06:06N 51°58' E 004°02'0 0.0
2018-Feb-21 05:57N 51°58' E 004°02'0 0.0
2018-Feb-21 05:30N 51°58' E 004°02'0 0.0
2018-Feb-21 05:00N 51°58' E 004°02'0 0.0
2018-Feb-21 04:26N 51°58' E 004°02'0 0.0
2018-Feb-21 03:59N 51°58' E 004°02'0 0.0
2018-Feb-21 03:30N 51°58' E 004°02'1 1.3
2018-Feb-21 03:00N 51°58' E 004°03'3 6.1
2018-Feb-21 02:30N 51°58' E 004°08'714.0
2018-Feb-21 02:00N 51°54' E 004°17'4 8.9
2018-Feb-21 01:30N 51°53' E 004°24'0 0.5
2018-Feb-21 00:59N 51°53' E 004°24'0 0.0
2018-Feb-21 00:29N 51°53' E 004°24'0 0.0
2018-Feb-20 23:59N 51°53' E 004°24'0 0.0
2018-Feb-20 23:28N 51°53' E 004°24'0 0.0
2018-Feb-20 22:55N 51°53' E 004°24'0 0.0
2018-Feb-20 22:28N 51°53' E 004°24'0 0.0
2018-Feb-20 21:58N 51°53' E 004°24'0 0.0
2018-Feb-20 21:28N 51°53' E 004°24'0 0.0
2018-Feb-20 21:00N 51°53' E 004°24'0 0.0
2018-Feb-20 20:27N 51°53' E 004°24'0 0.9
2018-Feb-20 20:00N 51°53' E 004°24'3 6.7
2018-Feb-20 19:30N 51°54' E 004°19'4 7.6
2018-Feb-20 19:00N 51°55' E 004°14'612.6
2018-Feb-20 18:30N 51°59' E 004°05'3 5.2
2018-Feb-20 18:00N 51°59' E 004°01'2 3.3
2018-Feb-20 17:30N 51°57' E 003°60'0 0.0
2018-Feb-20 17:00N 51°57' E 003°60'0 0.0
2018-Feb-20 16:30N 51°57' E 003°60'0 0.0
2018-Feb-20 16:00N 51°57' E 003°60'0 0.0
2018-Feb-20 15:30N 51°57' E 003°60'0 0.0
2018-Feb-20 14:59N 51°57' E 003°60'0 0.0
2018-Feb-20 14:26N 51°57' E 003°60'0 0.0
2018-Feb-20 13:59N 51°57' E 003°60'0 0.0
2018-Feb-20 13:26N 51°57' E 003°60'0 0.0
2018-Feb-20 12:58N 51°57' E 003°60'0 0.0
2018-Feb-20 12:28N 51°57' E 003°60'0 0.0
2018-Feb-20 11:58N 51°57' E 003°60'0 0.0
2018-Feb-20 11:28N 51°57' E 003°60'0 0.0
2018-Feb-20 10:55N 51°57' E 003°60'0 0.0
2018-Feb-20 10:30N 51°57' E 003°60'0 0.0
2018-Feb-20 09:42N 51°57' E 003°60'0 0.0
2018-Feb-20 09:27N 51°57' E 003°60'0 0.0
2018-Feb-20 08:57N 51°57' E 003°60'0 0.0
2018-Feb-20 08:27N 51°57' E 003°60'0 0.0
2018-Feb-20 07:59N 51°57' E 003°60'0 0.0
2018-Feb-20 07:26N 51°57' E 003°60'0 0.0
2018-Feb-20 06:56N 51°57' E 003°60'0 0.0
2018-Feb-20 06:26N 51°57' E 003°60'0 0.0
2018-Feb-20 05:55N 51°57' E 003°60'0 0.0
2018-Feb-20 05:28N 51°57' E 003°60'0 0.0
2018-Feb-20 04:58N 51°57' E 003°60'0 0.0
2018-Feb-20 04:28N 51°57' E 003°60'0 0.0
2018-Feb-20 03:55N 51°57' E 003°60'0 0.0
2018-Feb-20 03:30N 51°57' E 003°60'0 0.0
2018-Feb-20 03:00N 51°57' E 003°60'0 0.0
2018-Feb-20 02:30N 51°57' E 003°60'0 0.0
2018-Feb-20 01:54N 51°57' E 003°60'0 0.0
2018-Feb-20 01:30N 51°57' E 003°60'0 0.0
2018-Feb-20 00:59N 51°57' E 003°60'0 0.0
2018-Feb-20 00:23N 51°57' E 003°60'0 0.0
2018-Feb-19 23:59N 51°57' E 003°60'0 0.0
2018-Feb-19 23:29N 51°57' E 003°60'0 0.0
2018-Feb-19 22:58N 51°57' E 003°60'0 0.0
2018-Feb-19 22:28N 51°57' E 003°60'0 0.0
2018-Feb-19 21:58N 51°57' E 003°60'0 0.0
2018-Feb-19 21:30N 51°57' E 003°60'2 4.0
2018-Feb-19 21:00N 51°58' E 004°02'2 3.4
2018-Feb-19 20:30N 51°57' E 004°03'0 0.0
2018-Feb-19 20:00N 51°57' E 004°03'0 0.0
2018-Feb-19 19:29N 51°57' E 004°03'0 0.0
2018-Feb-19 18:59N 51°57' E 004°03'0 0.0
2018-Feb-19 18:29N 51°57' E 004°03'0 0.0
2018-Feb-19 17:59N 51°57' E 004°03'0 0.0
2018-Feb-19 17:29N 51°57' E 004°03'0 0.0
2018-Feb-19 16:58N 51°57' E 004°03'0 0.0
2018-Feb-19 16:28N 51°57' E 004°03'0 0.0
2018-Feb-19 15:58N 51°57' E 004°03'0 0.0
2018-Feb-19 15:25N 51°57' E 004°03'0 0.0
2018-Feb-19 14:57N 51°57' E 004°03'0 0.0
2018-Feb-19 14:30N 51°57' E 004°03'0 0.0
2018-Feb-19 14:00N 51°57' E 004°03'0 0.0
2018-Feb-19 13:27N 51°57' E 004°03'0 0.0
2018-Feb-19 12:44N 51°57' E 004°03'0 0.0
2018-Feb-19 12:25N 51°57' E 004°03'0 0.0
2018-Feb-19 11:59N 51°57' E 004°03'0 0.0
2018-Feb-19 11:25N 51°57' E 004°03'0 0.0
2018-Feb-19 10:59N 51°57' E 004°03'0 0.0
2018-Feb-19 10:29N 51°57' E 004°03'0 0.0
2018-Feb-19 09:58N 51°57' E 004°03'0 0.0
2018-Feb-19 09:25N 51°57' E 004°03'0 0.0
2018-Feb-19 08:58N 51°57' E 004°03'0 0.0
2018-Feb-19 08:22N 51°57' E 004°03'0 0.0
2018-Feb-19 07:57N 51°57' E 004°03'0 0.0
2018-Feb-19 07:27N 51°57' E 004°03'0 0.0
2018-Feb-19 07:00N 51°57' E 004°03'0 0.0
2018-Feb-19 06:27N 51°57' E 004°03'0 0.0
2018-Feb-19 05:58N 51°57' E 004°03'0 0.0
2018-Feb-19 05:29N 51°57' E 004°03'0 0.0
2018-Feb-19 04:53N 51°57' E 004°03'0 0.0
2018-Feb-19 04:26N 51°57' E 004°03'0 0.0
2018-Feb-19 03:56N 51°57' E 004°03'0 0.0
2018-Feb-19 03:29N 51°57' E 004°03'0 0.0
2018-Feb-19 02:52N 51°57' E 004°03'0 0.0
2018-Feb-19 02:19N 51°57' E 004°03'0 0.0
2018-Feb-19 01:58N 51°57' E 004°03'0 0.0
2018-Feb-19 01:30N 51°57' E 004°03'2 3.6
2018-Feb-19 01:01N 51°58' E 004°05'714.0
2018-Feb-19 00:30N 51°59' E 003°54'713.2
2018-Feb-19 00:00N 51°58' E 003°43'914.7
2018-Feb-18 23:22N 51°56' E 003°28'714.8
2018-Feb-18 22:54N 51°54' E 003°18'614.7
2018-Feb-18 22:29N 51°52' E 003°09'1814.6
2018-Feb-18 21:16N 51°45' E 002°42'513.8
2018-Feb-18 20:54N 51°43' E 002°34'614.0
2018-Feb-18 20:29N 51°38' E 002°28'714.5
2018-Feb-18 20:00N 51°33' E 002°21'714.5
2018-Feb-18 19:30N 51°28' E 002°14'714.3
2018-Feb-18 19:00N 51°21' E 002°10'713.4
2018-Feb-18 18:30N 51°15' E 002°04'815.1
2018-Feb-18 18:00N 51°11' E 001°54'815.2
2018-Feb-18 17:30N 51°07' E 001°44'815.9
2018-Feb-18 17:00N 51°01' E 001°36'6614.8
2018-Feb-18 12:32N 50°22' E 000°11'116.1
2018-Feb-18 12:30N 50°22' E 000°10'816.4
2018-Feb-18 12:00N 50°19' W 000°02'3917.8
2018-Feb-18 09:48N 50°07' W 001°00'618.7
2018-Feb-18 09:29N 50°06' W 001°09'918.9
2018-Feb-18 09:00N 50°04' W 001°23'918.7
2018-Feb-18 08:31N 50°02' W 001°37'918.3
2018-Feb-18 08:00N 49°60' W 001°51'17514.3
2018-Feb-17 19:50N 48°31' W 005°41'514.7
2018-Feb-17 19:30N 48°27' W 005°38'815.1
2018-Feb-17 18:58N 48°19' W 005°32'715.2
2018-Feb-17 18:30N 48°13' W 005°28'715.3
2018-Feb-17 18:00N 48°06' W 005°25'815.5
2018-Feb-17 17:30N 47°58' W 005°21'815.7
2018-Feb-17 17:00N 47°51' W 005°17'815.7
2018-Feb-17 16:30N 47°43' W 005°13'915.7
2018-Feb-17 15:57N 47°35' W 005°09'815.5
2018-Feb-17 15:28N 47°28' W 005°06'24314.8
2018-Feb-16 23:01N 43°39' W 003°12'115.7
2018-Feb-16 22:58N 43°38' W 003°11'815.2
2018-Feb-16 22:28N 43°31' W 003°08'714.8
2018-Feb-16 22:00N 43°24' W 003°06'4 8.1
2018-Feb-16 21:30N 43°21' W 003°03'0 0.4
2018-Feb-16 21:00N 43°21' W 003°03'0 0.0
2018-Feb-16 20:30N 43°21' W 003°03'0 0.0
2018-Feb-16 19:59N 43°21' W 003°03'0 0.0
2018-Feb-16 19:29N 43°21' W 003°03'0 0.0
2018-Feb-16 18:59N 43°21' W 003°03'0 0.0
2018-Feb-16 18:29N 43°21' W 003°03'0 0.0
2018-Feb-16 17:58N 43°21' W 003°03'0 0.0
2018-Feb-16 17:28N 43°21' W 003°03'0 0.0
2018-Feb-16 16:58N 43°21' W 003°03'0 0.0
2018-Feb-16 16:22N 43°21' W 003°03'0 0.0
2018-Feb-16 15:58N 43°21' W 003°03'0 0.0
2018-Feb-16 15:30N 43°21' W 003°03'0 0.0
2018-Feb-16 14:57N 43°21' W 003°03'0 0.0
2018-Feb-16 14:27N 43°21' W 003°03'0 0.0
2018-Feb-16 14:00N 43°21' W 003°03'0 0.0
2018-Feb-16 13:29N 43°21' W 003°03'0 0.0
2018-Feb-16 12:57N 43°21' W 003°03'0 0.0
2018-Feb-16 12:30N 43°21' W 003°03'0 0.0
2018-Feb-16 11:57N 43°21' W 003°03'0 0.0
2018-Feb-16 11:27N 43°21' W 003°03'0 0.0
2018-Feb-16 10:56N 43°21' W 003°03'0 0.0
2018-Feb-16 10:29N 43°21' W 003°03'0 0.0
2018-Feb-16 09:59N 43°21' W 003°03'0 0.0
2018-Feb-16 09:29N 43°21' W 003°03'0 0.0
2018-Feb-16 08:56N 43°21' W 003°03'0 0.0
2018-Feb-16 08:28N 43°21' W 003°03'0 0.0
2018-Feb-16 07:55N 43°21' W 003°03'0 0.0
2018-Feb-16 07:28N 43°21' W 003°03'0 0.0
2018-Feb-16 06:58N 43°21' W 003°03'0 0.0
2018-Feb-16 06:30N 43°21' W 003°03'0 0.0
2018-Feb-16 06:00N 43°21' W 003°03'0 0.0
2018-Feb-16 05:30N 43°21' W 003°03'0 0.0
2018-Feb-16 04:54N 43°21' W 003°03'0 0.0
2018-Feb-16 04:30N 43°21' W 003°03'0 0.0
2018-Feb-16 03:59N 43°21' W 003°03'0 0.0
2018-Feb-16 03:29N 43°21' W 003°03'0 0.0
2018-Feb-16 02:59N 43°21' W 003°03'0 0.0
2018-Feb-16 02:29N 43°21' W 003°03'0 0.0
2018-Feb-16 01:58N 43°21' W 003°03'0 0.0
2018-Feb-16 01:28N 43°21' W 003°03'0 0.0
2018-Feb-16 00:58N 43°21' W 003°03'0 0.0
2018-Feb-16 00:28N 43°21' W 003°03'0 0.0
2018-Feb-15 23:58N 43°21' W 003°03'0 0.0
2018-Feb-15 23:30N 43°21' W 003°03'0 0.0
2018-Feb-15 23:00N 43°21' W 003°03'0 0.0
2018-Feb-15 22:30N 43°21' W 003°03'0 0.0
2018-Feb-15 22:00N 43°21' W 003°03'0 0.0
2018-Feb-15 21:30N 43°21' W 003°03'0 0.0
2018-Feb-15 20:59N 43°21' W 003°03'0 0.0
2018-Feb-15 20:29N 43°21' W 003°03'0 0.0
2018-Feb-15 19:59N 43°21' W 003°03'0 0.0
2018-Feb-15 19:26N 43°21' W 003°03'0 0.0
2018-Feb-15 18:58N 43°21' W 003°03'0 0.0
2018-Feb-15 18:25N 43°21' W 003°03'0 0.0
2018-Feb-15 17:58N 43°21' W 003°03'0 0.0
2018-Feb-15 17:25N 43°21' W 003°03'0 0.0
2018-Feb-15 16:58N 43°21' W 003°03'0 0.0
2018-Feb-15 16:30N 43°21' W 003°03'0 0.0
2018-Feb-15 16:00N 43°21' W 003°03'0 0.0
2018-Feb-15 15:30N 43°21' W 003°03'0 0.0
2018-Feb-15 14:57N 43°21' W 003°03'0 0.0
2018-Feb-15 14:30N 43°21' W 003°03'0 0.0
2018-Feb-15 13:59N 43°21' W 003°03'0 0.0
2018-Feb-15 13:29N 43°21' W 003°03'0 0.0
2018-Feb-15 12:56N 43°21' W 003°03'0 0.0
2018-Feb-15 12:30N 43°21' W 003°03'0 0.0
2018-Feb-15 12:00N 43°21' W 003°03'0 0.0
2018-Feb-15 11:30N 43°21' W 003°03'0 0.0
2018-Feb-15 11:00N 43°21' W 003°03'0 0.0
2018-Feb-15 10:30N 43°21' W 003°03'0 0.0
2018-Feb-15 10:00N 43°21' W 003°03'0 0.0
2018-Feb-15 09:30N 43°21' W 003°03'0 0.0
2018-Feb-15 09:00N 43°21' W 003°03'0 0.0
2018-Feb-15 08:30N 43°21' W 003°03'0 0.0
2018-Feb-15 08:00N 43°21' W 003°03'0 0.0
2018-Feb-15 07:30N 43°21' W 003°03'0 0.0
2018-Feb-15 07:00N 43°21' W 003°03'0 0.0
2018-Feb-15 06:30N 43°21' W 003°03'0 0.0
2018-Feb-15 06:00N 43°21' W 003°03'0 0.0
2018-Feb-15 05:30N 43°21' W 003°03'0 0.0
2018-Feb-15 05:00N 43°21' W 003°03'0 0.0
2018-Feb-15 04:30N 43°21' W 003°03'0 0.0
2018-Feb-15 04:00N 43°21' W 003°03'0 0.0
2018-Feb-15 03:30N 43°21' W 003°03'0 0.0
2018-Feb-15 03:00N 43°21' W 003°03'0 0.0
2018-Feb-15 02:30N 43°21' W 003°03'0 0.0
2018-Feb-15 02:00N 43°21' W 003°03'0 0.0
2018-Feb-15 01:30N 43°21' W 003°03'0 0.0
2018-Feb-15 01:00N 43°21' W 003°03'0 0.0
2018-Feb-15 00:30N 43°21' W 003°03'0 0.0
2018-Feb-15 00:00N 43°21' W 003°03'0 0.0
2018-Feb-14 23:29N 43°21' W 003°03'0 0.0
2018-Feb-14 23:00N 43°21' W 003°03'0 0.0
2018-Feb-14 22:30N 43°21' W 003°03'1 2.0
2018-Feb-14 22:00N 43°22' W 003°03'4 7.4
2018-Feb-14 21:30N 43°25' W 003°06'611.7
2018-Feb-14 21:00N 43°30' W 003°08'815.3
2018-Feb-14 20:30N 43°38' W 003°09'815.0
2018-Feb-14 19:59N 43°46' W 003°10'27614.0
2018-Feb-14 00:15N 48°02' W 005°39'313.6
2018-Feb-14 00:00N 48°05' W 005°41'13610.5
2018-Feb-13 11:04N 49°47' W 003°25'112.4
2018-Feb-13 11:00N 49°48' W 003°24'612.7
2018-Feb-13 10:30N 49°51' W 003°16'712.5
2018-Feb-13 09:58N 49°54' W 003°07'712.1
2018-Feb-13 09:25N 49°58' W 002°58'410.7
2018-Feb-13 09:00N 49°60' W 002°52'610.1
2018-Feb-13 08:27N 50°02' W 002°44'3710.8
2018-Feb-13 05:03N 50°12' W 001°49'112.9
2018-Feb-13 05:00N 50°12' W 001°48'713.1
2018-Feb-13 04:30N 50°14' W 001°38'4815.1
2018-Feb-13 01:18N 50°27' W 000°25'515.9
2018-Feb-13 01:00N 50°28' W 000°18'815.9
2018-Feb-13 00:30N 50°30' W 000°06'815.7
2018-Feb-13 00:00N 50°32' E 000°06'815.5
2018-Feb-12 23:31N 50°35' E 000°17'815.4
2018-Feb-12 23:00N 50°38' E 000°29'714.9
2018-Feb-12 22:30N 50°40' E 000°40'714.7
2018-Feb-12 22:00N 50°44' E 000°49'714.6
2018-Feb-12 21:30N 50°49' E 000°58'914.4
2018-Feb-12 20:52N 50°55' E 001°09'714.3
2018-Feb-12 20:24N 50°59' E 001°17'615.0
2018-Feb-12 20:00N 51°03' E 001°25'816.1
2018-Feb-12 19:30N 51°08' E 001°34'816.6
2018-Feb-12 19:01N 51°13' E 001°44'816.9
2018-Feb-12 18:31N 51°20' E 001°51'816.8
2018-Feb-12 18:01N 51°27' E 002°00'816.6
2018-Feb-12 17:31N 51°33' E 002°09'816.1
2018-Feb-12 17:00N 51°39' E 002°18'815.5
2018-Feb-12 16:30N 51°45' E 002°26'4313.6
2018-Feb-12 13:22N 52°03' E 003°29'513.9
2018-Feb-12 13:00N 52°03' E 003°37'713.7
2018-Feb-12 12:30N 52°03' E 003°48'4 8.5
2018-Feb-12 12:00N 52°02' E 003°55'713.6
2018-Feb-12 11:30N 51°59' E 004°05'2 2.5
2018-Feb-12 10:48N 51°57' E 004°04'0 0.0
2018-Feb-12 10:30N 51°57' E 004°04'0 0.0
2018-Feb-12 09:56N 51°57' E 004°04'0 0.0
2018-Feb-12 09:29N 51°57' E 004°04'0 0.0
2018-Feb-12 08:53N 51°57' E 004°04'0 0.0
2018-Feb-12 08:29N 51°57' E 004°04'0 0.0
2018-Feb-12 07:59N 51°57' E 004°04'0 0.0
2018-Feb-12 07:22N 51°57' E 004°04'0 0.0
2018-Feb-12 06:58N 51°57' E 004°04'  

Dump ship's entire track history